createdAt,value
2018-06-04T00:01:26.517Z,3.68
2018-06-04T00:07:21.497Z,3.87
2018-06-04T00:13:16.530Z,3.43
2018-06-04T00:19:11.494Z,3.44
2018-06-04T00:25:06.503Z,3.96
2018-06-04T00:31:01.526Z,4.52
2018-06-04T00:36:56.548Z,4.15
2018-06-04T00:42:51.562Z,3.74
2018-06-04T00:48:46.558Z,5.62
2018-06-04T00:54:41.592Z,4.21
2018-06-04T01:00:36.569Z,4.33
2018-06-04T01:06:31.595Z,3.97
2018-06-04T01:12:26.574Z,4.06
2018-06-04T01:18:21.704Z,4.75
2018-06-04T01:24:16.583Z,3.91
2018-06-04T01:30:11.567Z,4.31
2018-06-04T01:36:06.615Z,4.72
2018-06-04T01:42:01.634Z,4.49
2018-06-04T01:47:56.578Z,4.52
2018-06-04T01:53:51.599Z,4.63
2018-06-04T01:59:46.606Z,4.7
2018-06-04T02:05:41.614Z,4.71
2018-06-04T02:11:36.580Z,4.65
2018-06-04T02:17:31.576Z,4.38
2018-06-04T02:23:26.657Z,4.34
2018-06-04T02:29:21.679Z,4.79
2018-06-04T02:35:16.649Z,4.41
2018-06-04T02:41:11.661Z,4.5
2018-06-04T02:47:06.627Z,4.36
2018-06-04T02:53:01.642Z,4.07
2018-06-04T02:58:56.665Z,4.12
2018-06-04T03:04:51.736Z,3.99
2018-06-04T03:10:46.657Z,4.4
2018-06-04T03:16:41.644Z,4.02
2018-06-04T03:22:36.655Z,4.75
2018-06-04T03:28:31.697Z,4.58
2018-06-04T03:34:26.657Z,4.23
2018-06-04T03:40:21.665Z,4.37
2018-06-04T03:46:16.680Z,4.49
2018-06-04T03:52:11.674Z,3.95
2018-06-04T03:58:06.713Z,4.12
2018-06-04T04:04:01.688Z,4.21
2018-06-04T04:09:56.692Z,4.98
2018-06-04T04:15:51.711Z,4.26
2018-06-04T04:21:46.692Z,4.56
2018-06-04T04:27:41.790Z,4.52
2018-06-04T04:33:36.718Z,4.29
2018-06-04T04:39:31.697Z,4.56
2018-06-04T04:45:26.737Z,4.49
2018-06-04T04:51:21.756Z,4.32
2018-06-04T04:57:16.754Z,4.67
2018-06-04T05:03:11.725Z,4.96
2018-06-04T05:09:06.780Z,5.84
2018-06-04T05:15:01.946Z,5.54
2018-06-04T05:20:56.806Z,5.39
2018-06-04T05:26:51.779Z,5.89
2018-06-04T05:32:46.744Z,6.58
2018-06-04T05:38:41.764Z,6.84
2018-06-04T05:44:36.791Z,6.25
2018-06-04T05:50:31.784Z,6.27
2018-06-04T05:56:26.799Z,6.45
2018-06-04T06:02:21.823Z,6.04
2018-06-04T06:08:16.785Z,6.31
2018-06-04T06:14:11.821Z,6.5
2018-06-04T06:20:06.791Z,7.66
2018-06-04T06:26:01.759Z,6.94
2018-06-04T06:31:56.777Z,6.37
2018-06-04T06:37:51.803Z,6.12
2018-06-04T06:43:46.849Z,6.03
2018-06-04T06:49:41.903Z,5.97
2018-06-04T06:55:36.822Z,5.72
2018-06-04T07:01:31.850Z,5.59
2018-06-04T07:07:26.949Z,5.09
2018-06-04T07:13:21.865Z,5.09
2018-06-04T07:19:16.887Z,4.66
2018-06-04T07:25:11.836Z,3.99
2018-06-04T07:31:06.842Z,3.93
2018-06-04T07:37:01.887Z,4.1
2018-06-04T07:42:56.860Z,4.41
2018-06-04T07:48:51.855Z,4.56
2018-06-04T07:54:46.853Z,5.01
2018-06-04T08:00:42.025Z,3.9
2018-06-04T08:06:36.981Z,3.27
2018-06-04T08:12:31.890Z,3.47
2018-06-04T08:18:26.865Z,3.85
2018-06-04T08:24:21.879Z,4.27
2018-06-04T08:30:16.994Z,3.48
2018-06-04T08:36:11.966Z,4.09
2018-06-04T08:42:06.900Z,3.78
2018-06-04T08:48:01.905Z,3.6
2018-06-04T08:53:56.985Z,3.96
2018-06-04T08:59:51.900Z,4.07
2018-06-04T09:05:46.930Z,4.12
2018-06-04T09:11:42.515Z,3.92
2018-06-04T09:17:36.950Z,4.3
2018-06-04T09:23:31.909Z,4.37
2018-06-04T09:29:26.987Z,4.07
2018-06-04T09:35:21.925Z,3.63
2018-06-04T09:41:16.945Z,4.06
2018-06-04T09:47:11.999Z,4.83
2018-06-04T09:53:06.984Z,4.16
2018-06-04T09:59:01.994Z,4.45
2018-06-04T10:04:56.998Z,4.53
2018-06-04T10:10:52.002Z,3.93
2018-06-04T10:16:47.736Z,4.5
2018-06-04T10:22:41.971Z,4.16
2018-06-04T10:28:36.976Z,5.49
2018-06-04T10:34:32.296Z,4.17
2018-06-04T10:40:27.202Z,3.65
2018-06-04T10:46:22.016Z,3.77
2018-06-04T10:52:17.021Z,3.49
2018-06-04T10:58:12.150Z,3.82
2018-06-04T11:04:07.025Z,3.28
2018-06-04T11:10:02.428Z,3.15
2018-06-04T11:15:57.060Z,3.68
2018-06-04T11:21:52.263Z,3.81
2018-06-04T11:27:47.042Z,3.71
2018-06-04T11:33:42.029Z,4.05
2018-06-04T11:39:37.076Z,3.99
2018-06-04T11:45:32.037Z,3.62
2018-06-04T11:51:27.061Z,3.55
2018-06-04T11:57:22.094Z,3.98
2018-06-04T12:03:17.096Z,4.07
2018-06-04T12:09:12.056Z,4.23
2018-06-04T12:15:07.098Z,4.28
2018-06-04T12:21:02.146Z,4.43
2018-06-04T12:26:57.066Z,4.1
2018-06-04T12:32:52.684Z,5.46
2018-06-04T12:38:47.127Z,4.71
2018-06-04T12:44:42.084Z,8.07
2018-06-04T12:50:37.123Z,6.74
2018-06-04T12:56:32.140Z,6.62
2018-06-04T13:02:27.200Z,5.99
2018-06-04T13:08:22.142Z,5.74
2018-06-04T13:14:17.110Z,6.69
2018-06-04T13:20:12.132Z,6.61
2018-06-04T13:26:07.168Z,7.01
2018-06-04T13:32:02.623Z,11.02
2018-06-04T13:37:57.421Z,7.24
2018-06-04T13:43:52.512Z,5.84
2018-06-04T13:49:47.136Z,5.57
2018-06-04T13:55:42.220Z,5.82
2018-06-04T14:01:37.549Z,6.88
2018-06-04T14:07:32.325Z,7.5
2018-06-04T14:13:27.179Z,7.11
2018-06-04T14:19:22.461Z,8.07
2018-06-04T14:25:17.233Z,8.48
2018-06-04T14:31:12.203Z,8.1
2018-06-04T14:37:07.174Z,8.41
2018-06-04T14:43:02.417Z,7.04
2018-06-04T14:54:52.304Z,9.46
2018-06-04T14:54:53.860Z,11.44
2018-06-04T15:00:47.315Z,14.03
2018-06-04T15:06:43.226Z,9.71
2018-06-04T15:12:37.241Z,8.66
2018-06-04T15:18:32.342Z,9.06
2018-06-04T15:24:27.324Z,9.44
2018-06-04T15:30:22.241Z,9.21
2018-06-04T15:36:17.248Z,10.1
2018-06-04T15:42:12.299Z,9.28
2018-06-04T15:48:07.452Z,10.67
2018-06-04T15:54:02.315Z,9.11
2018-06-04T15:59:57.266Z,7.98
2018-06-04T16:05:52.282Z,8.54
2018-06-04T16:11:47.299Z,8.77
2018-06-04T16:17:42.335Z,8.27
2018-06-04T16:23:37.390Z,8.45
2018-06-04T16:29:32.285Z,8.29
2018-06-04T16:35:27.379Z,8.48
2018-06-04T16:41:22.321Z,9.63
2018-06-04T16:47:17.322Z,8.35
2018-06-04T16:53:12.283Z,7.92
2018-06-04T16:59:07.374Z,8.94
2018-06-04T17:05:02.619Z,7.89
2018-06-04T17:10:57.329Z,6.6
2018-06-04T17:16:52.513Z,5.46
2018-06-04T17:22:47.363Z,4.6
2018-06-04T17:28:42.360Z,4.79
2018-06-04T17:34:37.368Z,4.45
2018-06-04T17:40:32.352Z,4.47
2018-06-04T17:46:27.417Z,4.27
2018-06-04T17:52:22.334Z,4.1
2018-06-04T17:58:17.464Z,3.7
2018-06-04T18:04:12.904Z,3.76
2018-06-04T18:10:07.383Z,3.79
2018-06-04T18:16:02.664Z,3.65
2018-06-04T18:21:57.433Z,3.21
2018-06-04T18:27:52.412Z,3.12
2018-06-04T18:33:47.376Z,3.06
2018-06-04T18:39:42.401Z,2.9
2018-06-04T18:45:37.423Z,2.96
2018-06-04T18:51:32.542Z,2.96
2018-06-04T18:57:27.458Z,2.53
2018-06-04T19:03:22.429Z,3.19
2018-06-04T19:09:17.484Z,3.26
2018-06-04T19:15:12.460Z,3.77
2018-06-04T19:21:07.479Z,3.67
2018-06-04T19:27:02.648Z,4.1
2018-06-04T19:32:57.474Z,4.25
2018-06-04T19:38:52.702Z,3.78
2018-06-04T19:44:47.489Z,3.64
2018-06-04T19:50:42.727Z,3.62
2018-06-04T19:56:37.475Z,4.13
2018-06-04T20:02:32.452Z,3.43
2018-06-04T20:08:27.435Z,3.68
2018-06-04T20:14:22.486Z,3.6
2018-06-04T20:20:17.485Z,3.23
2018-06-04T20:26:12.484Z,3.61
2018-06-04T20:32:08.237Z,3.32
2018-06-04T20:38:02.531Z,4.03
2018-06-04T20:43:57.913Z,3.71
2018-06-04T20:49:52.527Z,3.41
2018-06-04T20:55:47.636Z,3.61
2018-06-04T21:01:42.661Z,3.2
2018-06-04T21:07:37.630Z,3.26
2018-06-04T21:13:32.527Z,3.6
2018-06-04T21:19:27.492Z,4
2018-06-04T21:25:22.572Z,4.56
2018-06-04T21:31:17.587Z,3.86
2018-06-04T21:37:12.601Z,3.7
2018-06-04T21:43:07.530Z,3.37
2018-06-04T21:49:02.666Z,3.38
2018-06-04T21:54:57.513Z,2.94
2018-06-04T22:00:52.587Z,3.17
2018-06-04T22:06:47.518Z,2.83
2018-06-04T22:12:42.563Z,2.65
2018-06-04T22:18:37.555Z,3.14
2018-06-04T22:24:32.520Z,3.03
2018-06-04T22:30:27.605Z,2.93
2018-06-04T22:36:22.614Z,3.32
2018-06-04T22:42:17.558Z,2.7
2018-06-04T22:48:12.612Z,3.01
2018-06-04T22:54:07.555Z,2.98
2018-06-04T23:00:02.683Z,3.3
2018-06-04T23:05:57.569Z,3.03
2018-06-04T23:11:52.616Z,3.63
2018-06-04T23:17:47.616Z,3.28
2018-06-04T23:23:42.588Z,3.34
2018-06-04T23:29:37.696Z,3.52
2018-06-04T23:35:32.626Z,3.11
2018-06-04T23:41:27.669Z,3.07
2018-06-04T23:47:22.612Z,2.9
2018-06-04T23:53:17.656Z,3.11
2018-06-04T23:59:12.610Z,3.13
